createdAt,value
2023-01-28T00:00:58.227Z,47.30
2023-01-28T00:03:26.154Z,47.48
2023-01-28T00:06:03.608Z,46.73
2023-01-28T00:08:31.579Z,47.41
2023-01-28T00:11:00.626Z,47.54
2023-01-28T00:13:28.901Z,47.61
2023-01-28T00:15:58.336Z,47.73
2023-01-28T00:18:26.474Z,47.78
2023-01-28T00:20:59.843Z,47.08
2023-01-28T00:23:29.232Z,47.54
2023-01-28T00:25:59.690Z,47.45
2023-01-28T00:28:27.708Z,47.61
2023-01-28T00:30:55.539Z,47.60
2023-01-28T00:33:23.557Z,47.77
2023-01-28T00:36:00.486Z,47.01
2023-01-28T00:38:28.539Z,47.66
2023-01-28T00:40:56.672Z,47.51
2023-01-28T00:43:24.878Z,47.59
2023-01-28T00:45:52.809Z,47.36
2023-01-28T00:48:21.879Z,47.44
2023-01-28T00:50:49.672Z,47.61
2023-01-28T00:53:19.003Z,47.44
2023-01-28T00:55:46.874Z,47.59
2023-01-28T00:58:16.614Z,47.40
2023-01-28T01:00:44.671Z,47.54
2023-01-28T01:03:12.650Z,47.44
2023-01-28T01:05:40.501Z,47.33
2023-01-28T01:08:09.223Z,47.38
2023-01-28T01:10:40.708Z,47.08
2023-01-28T01:13:10.177Z,47.10
2023-01-28T01:15:37.968Z,47.35
2023-01-28T01:18:06.561Z,47.54
2023-01-28T01:20:39.933Z,47.16
2023-01-28T01:23:07.769Z,47.03
2023-01-28T01:25:35.502Z,47.11
2023-01-28T01:28:04.987Z,46.80
2023-01-28T01:30:32.963Z,46.88
2023-01-28T01:33:00.741Z,46.66
2023-01-28T01:35:28.731Z,46.67
2023-01-28T01:37:56.472Z,46.67
2023-01-28T01:40:24.458Z,47.13
2023-01-28T01:42:52.220Z,46.82
2023-01-28T01:45:21.447Z,46.71
2023-01-28T01:47:53.742Z,46.76
2023-01-28T01:50:31.618Z,46.50
2023-01-28T01:53:04.278Z,46.43
2023-01-28T01:55:37.923Z,46.83
2023-01-28T01:58:10.908Z,46.77
2023-01-28T02:00:41.464Z,46.72
2023-01-28T02:03:11.060Z,46.86
2023-01-28T02:05:40.522Z,46.92
2023-01-28T02:08:22.083Z,47.00
2023-01-28T02:10:53.309Z,46.74
2023-01-28T02:13:25.666Z,46.88
2023-01-28T02:15:56.153Z,46.92
2023-01-28T02:18:24.120Z,47.17
2023-01-28T02:21:32.100Z,46.03
2023-01-28T02:24:20.558Z,46.04
2023-01-28T02:27:03.306Z,46.11
2023-01-28T02:29:38.844Z,46.42
2023-01-28T02:32:11.364Z,46.56
2023-01-28T02:34:45.423Z,46.65
2023-01-28T02:37:18.791Z,46.54
2023-01-28T02:39:50.561Z,46.84
2023-01-28T02:42:22.622Z,46.78
2023-01-28T02:44:52.013Z,46.82
2023-01-28T02:47:37.353Z,46.85
2023-01-28T02:50:09.927Z,46.71
2023-01-28T02:53:11.777Z,46.36
2023-01-28T02:55:44.676Z,46.86
2023-01-28T02:58:19.869Z,46.90
2023-01-28T03:00:55.379Z,46.51
2023-01-28T03:03:29.339Z,46.92
2023-01-28T03:06:06.690Z,46.60
2023-01-28T03:08:57.214Z,46.81
2023-01-28T03:11:43.464Z,46.88
2023-01-28T03:14:30.128Z,46.94
2023-01-28T03:17:20.298Z,46.52
2023-01-28T03:20:06.025Z,46.83
2023-01-28T03:22:56.175Z,46.71
2023-01-28T03:25:45.090Z,46.85
2023-01-28T03:28:35.930Z,46.81
2023-01-28T03:31:25.715Z,46.80
2023-01-28T03:34:17.442Z,46.84
2023-01-28T03:36:53.406Z,46.89
2023-01-28T03:39:40.074Z,46.82
2023-01-28T03:42:12.751Z,46.68
2023-01-28T03:44:50.201Z,46.79
2023-01-28T03:47:19.195Z,46.75
2023-01-28T03:49:51.846Z,46.49
2023-01-28T03:52:24.415Z,46.55
2023-01-28T03:54:56.464Z,46.19
2023-01-28T03:57:26.276Z,46.34
2023-01-28T03:59:55.075Z,46.66
2023-01-28T04:02:25.261Z,46.59
2023-01-28T04:04:55.086Z,46.44
2023-01-28T04:07:22.968Z,46.35
2023-01-28T04:10:23.267Z,46.59
2023-01-28T04:12:56.690Z,46.22
2023-01-28T04:15:26.255Z,46.07
2023-01-28T04:17:55.420Z,46.24
2023-01-28T04:20:31.111Z,46.15
2023-01-28T04:23:00.930Z,46.26
2023-01-28T04:25:29.856Z,46.07
2023-01-28T04:27:58.575Z,46.04
2023-01-28T04:30:29.628Z,45.97
2023-01-28T04:33:08.992Z,46.02
2023-01-28T04:35:48.737Z,45.79
2023-01-28T04:38:25.595Z,45.90
2023-01-28T04:41:13.657Z,46.03
2023-01-28T04:43:41.574Z,45.99
2023-01-28T04:46:38.524Z,45.99
2023-01-28T04:49:22.733Z,46.07
2023-01-28T04:51:54.729Z,45.83
2023-01-28T04:54:46.478Z,45.82
2023-01-28T04:57:15.769Z,45.80
2023-01-28T04:59:43.678Z,45.52
2023-01-28T05:02:11.837Z,45.78
2023-01-28T05:04:40.445Z,45.84
2023-01-28T05:07:11.086Z,45.80
2023-01-28T05:09:38.917Z,45.91
2023-01-28T05:12:07.178Z,46.03
2023-01-28T05:14:37.839Z,45.74
2023-01-28T05:17:07.724Z,46.00
2023-01-28T05:19:36.375Z,45.70
2023-01-28T05:22:05.941Z,45.71
2023-01-28T05:24:42.733Z,45.28
2023-01-28T05:27:11.259Z,45.46
2023-01-28T05:29:39.036Z,45.37
2023-01-28T05:32:07.205Z,45.32
2023-01-28T05:34:34.934Z,45.46
2023-01-28T05:37:08.822Z,45.43
2023-01-28T05:39:38.905Z,45.52
2023-01-28T05:42:08.202Z,45.16
2023-01-28T05:44:40.728Z,45.46
2023-01-28T05:47:23.958Z,45.33
2023-01-28T05:49:56.258Z,45.64
2023-01-28T05:52:44.709Z,45.62
2023-01-28T05:55:24.649Z,45.77
2023-01-28T05:57:53.889Z,45.73
2023-01-28T06:00:24.203Z,45.75
2023-01-28T06:02:52.734Z,45.67
2023-01-28T06:05:21.895Z,45.64
2023-01-28T06:07:50.050Z,45.56
2023-01-28T06:10:18.476Z,45.57
2023-01-28T06:12:47.091Z,45.55
2023-01-28T06:15:35.023Z,45.27
2023-01-28T06:18:24.913Z,45.39
2023-01-28T06:20:53.012Z,45.38
2023-01-28T06:23:20.757Z,45.22
2023-01-28T06:25:48.635Z,45.16
2023-01-28T06:28:17.149Z,44.97
2023-01-28T06:30:49.422Z,43.92
2023-01-28T06:33:17.211Z,44.64
2023-01-28T06:35:45.082Z,44.37
2023-01-28T06:38:13.336Z,44.39
2023-01-28T06:40:41.389Z,44.01
2023-01-28T06:43:09.239Z,44.20
2023-01-28T06:45:36.933Z,44.10
2023-01-28T06:48:08.832Z,43.90
2023-01-28T06:50:36.734Z,44.05
2023-01-28T06:53:04.484Z,44.25
2023-01-28T06:55:32.244Z,44.16
2023-01-28T06:57:59.985Z,44.27
2023-01-28T07:00:27.829Z,44.37
2023-01-28T07:02:57.926Z,44.10
2023-01-28T07:05:27.478Z,44.21
2023-01-28T07:07:55.212Z,44.40
2023-01-28T07:10:23.242Z,44.52
2023-01-28T07:12:51.003Z,44.39
2023-01-28T07:15:18.937Z,44.19
2023-01-28T07:17:47.048Z,44.28
2023-01-28T07:20:16.442Z,43.89
2023-01-28T07:22:46.296Z,43.73
2023-01-28T07:25:15.400Z,43.41
2023-01-28T07:27:48.893Z,42.69
2023-01-28T07:30:17.392Z,43.51
2023-01-28T07:32:45.475Z,43.75
2023-01-28T07:35:14.194Z,43.66
2023-01-28T07:37:41.885Z,43.69
2023-01-28T07:40:12.701Z,43.56
2023-01-28T07:42:41.099Z,43.74
2023-01-28T07:45:11.850Z,43.47
2023-01-28T07:47:39.676Z,43.64
2023-01-28T07:50:08.114Z,43.45
2023-01-28T07:52:44.119Z,43.71
2023-01-28T07:55:15.402Z,43.15
2023-01-28T07:57:50.570Z,42.29
2023-01-28T08:00:19.343Z,43.49
2023-01-28T08:02:48.247Z,43.18
2023-01-28T08:05:18.299Z,43.21
2023-01-28T08:07:48.369Z,43.53
2023-01-28T08:10:18.926Z,43.34
2023-01-28T08:12:54.496Z,43.02
2023-01-28T08:15:22.906Z,43.58
2023-01-28T08:17:50.760Z,43.90
2023-01-28T08:20:18.941Z,43.89
2023-01-28T08:22:46.735Z,44.08
2023-01-28T08:25:14.809Z,43.79
2023-01-28T08:27:43.979Z,43.13
2023-01-28T08:30:13.298Z,43.59
2023-01-28T08:32:41.355Z,43.57
2023-01-28T08:35:09.710Z,43.84
2023-01-28T08:37:37.498Z,43.83
2023-01-28T08:40:06.320Z,43.89
2023-01-28T08:42:34.057Z,43.85
2023-01-28T08:45:03.755Z,43.67
2023-01-28T08:47:31.511Z,43.27
2023-01-28T08:49:59.312Z,43.24
2023-01-28T08:52:27.076Z,43.14
2023-01-28T08:54:54.942Z,43.20
2023-01-28T08:57:22.707Z,43.25
2023-01-28T08:59:50.564Z,43.10
2023-01-28T09:02:31.040Z,42.70
2023-01-28T09:05:00.398Z,42.66
2023-01-28T09:07:28.305Z,42.61
2023-01-28T09:09:56.133Z,42.85
2023-01-28T09:12:24.089Z,42.72
2023-01-28T09:14:52.168Z,42.77
2023-01-28T09:17:21.404Z,42.48
2023-01-28T09:19:50.047Z,42.76
2023-01-28T09:22:18.343Z,42.41
2023-01-28T09:24:46.334Z,42.25
2023-01-28T09:27:14.268Z,42.74
2023-01-28T09:29:42.107Z,42.54
2023-01-28T09:32:09.935Z,42.79
2023-01-28T09:34:39.323Z,42.82
2023-01-28T09:37:07.141Z,42.93
2023-01-28T09:39:35.010Z,43.27
2023-01-28T09:42:20.649Z,42.55
2023-01-28T09:45:01.088Z,43.00
2023-01-28T09:47:33.660Z,43.31
2023-01-28T09:50:07.129Z,43.18
2023-01-28T09:52:38.264Z,43.52
2023-01-28T09:55:08.304Z,43.64
2023-01-28T09:57:42.131Z,42.82
2023-01-28T10:00:16.290Z,42.68
2023-01-28T10:03:00.502Z,42.50
2023-01-28T10:05:39.925Z,42.17
2023-01-28T10:08:26.547Z,41.84
2023-01-28T10:11:03.384Z,42.25
2023-01-28T10:13:44.762Z,41.85
2023-01-28T10:16:25.345Z,41.85
2023-01-28T10:18:57.424Z,41.63
2023-01-28T10:21:34.660Z,40.78
2023-01-28T10:24:08.092Z,42.01
2023-01-28T10:26:45.347Z,41.26
2023-01-28T10:29:17.773Z,42.05
2023-01-28T10:31:53.327Z,41.89
2023-01-28T10:34:21.615Z,42.43
2023-01-28T10:36:52.441Z,42.27
2023-01-28T10:39:22.726Z,42.72
2023-01-28T10:41:57.864Z,42.95
2023-01-28T10:44:33.613Z,42.14
2023-01-28T10:47:05.908Z,42.59
2023-01-28T10:49:42.958Z,41.59
2023-01-28T10:52:16.420Z,41.43
2023-01-28T10:54:44.271Z,42.49
2023-01-28T10:57:16.143Z,41.66
2023-01-28T10:59:44.395Z,41.96
2023-01-28T11:02:32.229Z,40.57
2023-01-28T11:05:07.168Z,41.06
2023-01-28T11:07:36.379Z,41.90
2023-01-28T11:10:04.347Z,41.94
2023-01-28T11:12:32.534Z,41.87
2023-01-28T11:15:02.142Z,41.84
2023-01-28T11:17:32.947Z,41.95
2023-01-28T11:20:10.328Z,41.91
2023-01-28T11:22:42.812Z,41.97
2023-01-28T11:25:19.313Z,41.83
2023-01-28T11:27:49.565Z,42.25
2023-01-28T11:30:24.558Z,41.47
2023-01-28T11:33:00.302Z,41.60
2023-01-28T11:35:30.936Z,42.47
2023-01-28T11:38:01.423Z,42.27
2023-01-28T11:40:29.903Z,42.40
2023-01-28T11:42:59.713Z,42.52
2023-01-28T11:45:39.332Z,41.47
2023-01-28T11:48:22.787Z,41.50
2023-01-28T11:50:56.872Z,42.11
2023-01-28T11:54:06.149Z,40.87
2023-01-28T11:57:02.653Z,41.02
2023-01-28T11:59:56.016Z,41.21
2023-01-28T12:02:40.127Z,40.80
2023-01-28T12:05:20.527Z,40.80
2023-01-28T12:07:55.530Z,41.46
2023-01-28T12:10:32.992Z,41.83
2023-01-28T12:13:21.502Z,40.95
2023-01-28T12:16:19.340Z,40.49
2023-01-28T12:19:12.692Z,40.52
2023-01-28T12:21:54.545Z,40.80
2023-01-28T12:24:37.744Z,40.70
2023-01-28T12:27:11.748Z,40.85
2023-01-28T12:29:50.034Z,40.96
2023-01-28T12:32:39.088Z,41.12
2023-01-28T12:35:32.692Z,41.03
2023-01-28T12:38:04.170Z,42.18
2023-01-28T12:40:51.371Z,41.33
2023-01-28T12:43:25.099Z,41.77
2023-01-28T12:45:58.868Z,41.81
2023-01-28T12:48:33.435Z,41.95
2023-01-28T12:51:06.159Z,42.01
2023-01-28T12:53:41.669Z,41.56
2023-01-28T12:56:15.670Z,41.80
2023-01-28T12:58:50.685Z,41.43
2023-01-28T13:01:26.880Z,40.77
2023-01-28T13:03:59.215Z,41.37
2023-01-28T13:06:32.756Z,40.90
2023-01-28T13:09:04.308Z,41.36
2023-01-28T13:11:36.990Z,41.15
2023-01-28T13:14:06.062Z,41.48
2023-01-28T13:16:38.281Z,41.27
2023-01-28T13:19:09.000Z,41.49
2023-01-28T13:21:48.762Z,41.90
2023-01-28T13:24:32.751Z,41.11
2023-01-28T13:27:22.947Z,40.52
2023-01-28T13:30:03.326Z,40.78
2023-01-28T13:32:35.086Z,41.21
2023-01-28T13:35:06.540Z,41.62
2023-01-28T13:37:37.846Z,41.75
2023-01-28T13:40:23.639Z,40.90
2023-01-28T13:43:00.909Z,40.62
2023-01-28T13:45:28.981Z,41.56
2023-01-28T13:48:02.192Z,41.22
2023-01-28T13:50:40.106Z,41.22
2023-01-28T13:53:23.615Z,40.98
2023-01-28T13:55:57.189Z,41.43
2023-01-28T13:59:12.326Z,40.84
2023-01-28T14:01:58.411Z,40.96
2023-01-28T14:05:06.702Z,40.14
2023-01-28T14:07:56.965Z,40.53
2023-01-28T14:10:50.117Z,40.52
2023-01-28T14:13:33.259Z,40.76
2023-01-28T14:16:28.795Z,40.48
2023-01-28T14:19:00.335Z,41.43
2023-01-28T14:21:33.311Z,41.25
2023-01-28T14:24:01.234Z,41.26
2023-01-28T14:26:39.684Z,40.95
2023-01-28T14:29:17.611Z,40.85
2023-01-28T14:31:45.862Z,41.51
2023-01-28T14:34:23.729Z,40.81
2023-01-28T14:36:56.086Z,41.32
2023-01-28T14:39:28.256Z,41.33
2023-01-28T14:41:59.396Z,41.61
2023-01-28T14:44:31.570Z,41.08
2023-01-28T14:47:18.487Z,40.67
2023-01-28T14:50:01.926Z,40.56
2023-01-28T14:52:52.546Z,39.99
2023-01-28T14:55:32.875Z,40.16
2023-01-28T14:58:04.096Z,41.00
2023-01-28T15:00:34.225Z,41.24
2023-01-28T15:03:23.173Z,41.24
2023-01-28T15:06:03.153Z,40.43
2023-01-28T15:08:33.263Z,41.24
2023-01-28T15:11:02.837Z,41.32
2023-01-28T15:13:33.587Z,41.13
2023-01-28T15:16:01.917Z,41.34
2023-01-28T15:18:33.252Z,41.22
2023-01-28T15:21:02.079Z,41.34
2023-01-28T15:23:35.281Z,41.00
2023-01-28T15:26:06.878Z,40.90
2023-01-28T15:28:38.582Z,41.15
2023-01-28T15:31:08.230Z,41.28
2023-01-28T15:33:36.243Z,40.97
2023-01-28T15:36:04.403Z,41.14
2023-01-28T15:38:32.224Z,41.09
2023-01-28T15:41:03.399Z,41.11
2023-01-28T15:43:34.758Z,41.20
2023-01-28T15:46:03.042Z,41.32
2023-01-28T15:48:33.325Z,41.02
2023-01-28T15:51:03.470Z,41.30
2023-01-28T15:53:35.936Z,41.12
2023-01-28T15:56:11.430Z,40.72
2023-01-28T15:58:41.661Z,41.35
2023-01-28T16:01:19.270Z,40.75
2023-01-28T16:03:48.906Z,41.35
2023-01-28T16:06:19.595Z,41.25
2023-01-28T16:08:54.356Z,41.14
2023-01-28T16:11:27.129Z,41.27
2023-01-28T16:13:55.869Z,41.48
2023-01-28T16:16:30.645Z,41.17
2023-01-28T16:18:58.593Z,41.69
2023-01-28T16:21:28.954Z,41.44
2023-01-28T16:24:02.833Z,41.24
2023-01-28T16:26:34.231Z,41.37
2023-01-28T16:29:14.032Z,41.54
2023-01-28T16:31:42.021Z,41.83
2023-01-28T16:34:11.861Z,41.77
2023-01-28T16:36:39.729Z,41.84
2023-01-28T16:39:07.531Z,41.68
2023-01-28T16:41:43.276Z,40.80
2023-01-28T16:44:14.397Z,41.09
2023-01-28T16:46:42.804Z,41.38
2023-01-28T16:49:11.235Z,41.19
2023-01-28T16:51:42.529Z,41.37
2023-01-28T16:54:14.480Z,41.41
2023-01-28T16:56:46.324Z,41.33
2023-01-28T16:59:16.347Z,41.46
2023-01-28T17:01:44.647Z,41.35
2023-01-28T17:04:13.437Z,41.34
2023-01-28T17:06:44.245Z,41.47
2023-01-28T17:09:12.938Z,41.44
2023-01-28T17:11:41.256Z,41.57
2023-01-28T17:14:11.150Z,41.49
2023-01-28T17:16:39.152Z,41.57
2023-01-28T17:19:07.457Z,41.66
2023-01-28T17:21:35.462Z,41.67
2023-01-28T17:24:03.612Z,41.64
2023-01-28T17:26:33.831Z,41.48
2023-01-28T17:29:02.072Z,41.62
2023-01-28T17:31:31.373Z,41.60
2023-01-28T17:34:00.039Z,41.63
2023-01-28T17:36:29.010Z,41.60
2023-01-28T17:38:56.873Z,41.65
2023-01-28T17:41:24.756Z,41.50
2023-01-28T17:43:53.642Z,41.80
2023-01-28T17:46:23.386Z,41.65
2023-01-28T17:48:52.927Z,41.55
2023-01-28T17:51:20.896Z,41.65
2023-01-28T17:53:50.058Z,41.72
2023-01-28T17:56:19.009Z,41.73
2023-01-28T17:58:50.690Z,41.44
2023-01-28T18:01:18.606Z,41.83
2023-01-28T18:03:46.524Z,41.99
2023-01-28T18:06:15.940Z,41.73
2023-01-28T18:08:43.801Z,41.88
2023-01-28T18:11:13.032Z,42.04
2023-01-28T18:13:41.643Z,42.02
2023-01-28T18:16:14.422Z,41.78
2023-01-28T18:18:42.397Z,41.91
2023-01-28T18:21:21.773Z,41.54
2023-01-28T18:23:51.799Z,41.96
2023-01-28T18:26:19.561Z,42.04
2023-01-28T18:28:48.365Z,41.98
2023-01-28T18:31:16.393Z,42.01
2023-01-28T18:33:44.407Z,41.88
2023-01-28T18:36:12.667Z,42.16
2023-01-28T18:38:41.900Z,41.99
2023-01-28T18:41:09.931Z,41.95
2023-01-28T18:43:37.770Z,42.04
2023-01-28T18:46:12.555Z,41.80
2023-01-28T18:48:40.816Z,41.97
2023-01-28T18:51:17.440Z,41.93
2023-01-28T18:53:59.259Z,42.01
2023-01-28T18:56:27.250Z,42.06
2023-01-28T18:58:58.396Z,41.91
2023-01-28T19:01:27.187Z,41.94
2023-01-28T19:03:55.175Z,42.01
2023-01-28T19:06:23.134Z,41.92
2023-01-28T19:08:53.893Z,42.07
2023-01-28T19:11:23.848Z,42.20
2023-01-28T19:13:52.128Z,42.10
2023-01-28T19:16:20.637Z,42.17
2023-01-28T19:18:52.827Z,41.88
2023-01-28T19:21:30.098Z,42.18
2023-01-28T19:23:59.733Z,42.15
2023-01-28T19:26:28.843Z,42.31
2023-01-28T19:28:56.955Z,42.15
2023-01-28T19:31:25.973Z,42.16
2023-01-28T19:33:59.422Z,42.22
2023-01-28T19:36:31.441Z,42.27
2023-01-28T19:39:00.110Z,42.19
2023-01-28T19:41:28.452Z,42.29
2023-01-28T19:43:57.413Z,42.32
2023-01-28T19:46:25.833Z,42.21
2023-01-28T19:48:54.002Z,42.36
2023-01-28T19:51:21.881Z,42.42
2023-01-28T19:53:52.732Z,42.31
2023-01-28T19:56:22.010Z,42.38
2023-01-28T19:58:50.416Z,42.41
2023-01-28T20:01:20.908Z,42.29
2023-01-28T20:03:52.711Z,42.34
2023-01-28T20:06:21.163Z,42.54
2023-01-28T20:08:54.267Z,42.46
2023-01-28T20:11:23.339Z,42.58
2023-01-28T20:13:52.616Z,42.45
2023-01-28T20:16:23.220Z,42.57
2023-01-28T20:18:51.845Z,42.60
2023-01-28T20:21:20.681Z,42.55
2023-01-28T20:23:49.471Z,42.46
2023-01-28T20:26:21.146Z,42.70
2023-01-28T20:28:49.709Z,42.70
2023-01-28T20:31:18.287Z,42.43
2023-01-28T20:33:46.568Z,42.56
2023-01-28T20:36:15.616Z,42.63
2023-01-28T20:38:45.415Z,42.75
2023-01-28T20:41:15.643Z,42.73
2023-01-28T20:43:45.904Z,42.76
2023-01-28T20:46:16.498Z,42.68
2023-01-28T20:48:44.731Z,42.69
2023-01-28T20:51:17.788Z,42.75
2023-01-28T20:53:46.102Z,43.15
2023-01-28T20:56:16.801Z,42.78
2023-01-28T20:58:46.572Z,42.81
2023-01-28T21:01:18.580Z,42.80
2023-01-28T21:03:47.096Z,42.88
2023-01-28T21:06:15.536Z,43.06
2023-01-28T21:08:43.816Z,42.79
2023-01-28T21:11:12.884Z,42.78
2023-01-28T21:13:40.891Z,42.97
2023-01-28T21:16:10.494Z,43.00
2023-01-28T21:18:38.528Z,42.88
2023-01-28T21:21:08.410Z,42.66
2023-01-28T21:23:36.428Z,42.79
2023-01-28T21:26:06.576Z,42.76
2023-01-28T21:28:34.562Z,42.94
2023-01-28T21:31:07.308Z,42.87
2023-01-28T21:33:36.641Z,43.11
2023-01-28T21:36:09.799Z,42.87
2023-01-28T21:38:37.653Z,43.15
2023-01-28T21:41:06.629Z,43.11
2023-01-28T21:43:35.171Z,43.26
2023-01-28T21:46:03.035Z,43.30
2023-01-28T21:48:31.585Z,43.13
2023-01-28T21:51:24.679Z,42.89
2023-01-28T21:53:52.585Z,43.21
2023-01-28T21:56:20.458Z,43.02
2023-01-28T21:59:05.906Z,43.35
2023-01-28T22:01:33.884Z,43.14
2023-01-28T22:04:01.819Z,43.38
2023-01-28T22:06:31.109Z,43.29
2023-01-28T22:08:59.087Z,43.19
2023-01-28T22:11:26.958Z,43.27
2023-01-28T22:13:54.859Z,43.36
2023-01-28T22:16:22.789Z,43.30
2023-01-28T22:18:50.646Z,43.39
2023-01-28T22:21:18.484Z,43.43
2023-01-28T22:23:47.707Z,43.50
2023-01-28T22:26:15.521Z,43.40
2023-01-28T22:28:43.432Z,43.54
2023-01-28T22:31:13.741Z,43.72
2023-01-28T22:33:42.420Z,43.66
2023-01-28T22:36:13.964Z,43.40
2023-01-28T22:38:43.308Z,43.76
2023-01-28T22:41:14.562Z,43.54
2023-01-28T22:43:43.150Z,43.63
2023-01-28T22:46:11.604Z,43.52
2023-01-28T22:48:41.017Z,43.35
2023-01-28T22:51:11.503Z,43.44
2023-01-28T22:53:39.628Z,43.61
2023-01-28T22:56:09.128Z,43.56
2023-01-28T22:58:38.714Z,43.59
2023-01-28T23:01:07.591Z,43.63
2023-01-28T23:03:35.612Z,43.75
2023-01-28T23:06:05.783Z,43.61
2023-01-28T23:08:34.538Z,43.60
2023-01-28T23:11:03.611Z,43.70
2023-01-28T23:13:52.900Z,43.80
2023-01-28T23:16:39.462Z,43.79
2023-01-28T23:19:24.767Z,43.71
2023-01-28T23:22:10.095Z,43.92
2023-01-28T23:24:39.068Z,43.92
2023-01-28T23:27:06.884Z,44.02
2023-01-28T23:29:34.784Z,43.73
2023-01-28T23:32:06.317Z,43.80
2023-01-28T23:34:36.278Z,43.90
2023-01-28T23:37:05.708Z,44.03
2023-01-28T23:39:33.996Z,43.89
2023-01-28T23:42:10.774Z,44.25
2023-01-28T23:44:38.747Z,43.92
2023-01-28T23:47:08.225Z,44.04
2023-01-28T23:49:36.653Z,44.06
2023-01-28T23:52:05.681Z,44.00
2023-01-28T23:54:33.840Z,44.05
2023-01-28T23:57:02.506Z,43.94
2023-01-28T23:59:30.809Z,43.97
